Time;durP1;ratioP1;P1;durP2;ratioP2;P2;SDS_P1;SDS_P2;PMS_P1;PMS_P2;Temp;Humidity;BMP_temperature;BMP_pressure;BME280_temperature;BME280_humidity;BME280_pressure;Samples;Min_cycle;Max_cycle;Signal;HPM_P1;HPM_P2
2021/11/27 00:00:11;;;;;;;3.90;2.28;;;;;;;7.26;100.00;91840.19;5054906;28;20072;-84
2021/11/27 00:02:38;;;;;;;6.25;4.10;;;;;;;7.31;100.00;91853.09;5064263;28;20057;-83
2021/11/27 00:05:07;;;;;;;4.35;2.40;;;;;;;7.31;100.00;91842.88;5064682;28;20048;-84
2021/11/27 00:07:34;;;;;;;3.97;2.35;;;;;;;7.34;100.00;91850.06;5065126;28;20059;-83
2021/11/27 00:10:03;;;;;;;10.63;6.05;;;;;;;7.33;100.00;91840.84;5058238;28;20052;-83
2021/11/27 00:12:30;;;;;;;3.38;2.13;;;;;;;7.40;100.00;91853.53;5063568;28;20050;-83
2021/11/27 00:14:57;;;;;;;3.75;2.10;;;;;;;7.43;100.00;91856.41;5058455;28;20059;-84
2021/11/27 00:17:24;;;;;;;5.28;2.53;;;;;;;7.50;100.00;91858.81;5054722;28;20051;-84
2021/11/27 00:19:51;;;;;;;5.78;2.17;;;;;;;7.55;100.00;91855.63;5055025;28;20056;-83
2021/11/27 00:22:18;;;;;;;4.35;2.22;;;;;;;7.56;100.00;91852.06;5063002;28;20045;-84
2021/11/27 00:24:45;;;;;;;4.35;2.10;;;;;;;7.65;100.00;91855.03;5064632;28;20055;-85
2021/11/27 00:27:14;;;;;;;4.72;2.17;;;;;;;7.68;100.00;91857.16;5057200;28;20044;-84
2021/11/27 00:29:41;;;;;;;9.65;5.78;;;;;;;7.70;100.00;91847.47;5054989;28;20060;-84
2021/11/27 00:32:08;;;;;;;5.57;2.60;;;;;;;7.75;100.00;91857.81;5054728;28;20041;-84
2021/11/27 00:34:35;;;;;;;5.68;3.28;;;;;;;7.78;100.00;91866.81;5064071;28;20419;-84
2021/11/27 00:37:02;;;;;;;5.78;2.97;;;;;;;7.78;100.00;91849.66;5061284;28;20045;-84
2021/11/27 00:39:30;;;;;;;3.38;1.98;;;;;;;7.75;100.00;91855.25;5062770;28;20053;-83
2021/11/27 00:41:57;;;;;;;5.18;2.38;;;;;;;7.76;100.00;91841.47;5068305;28;20059;-86
2021/11/27 00:44:25;;;;;;;3.20;1.67;;;;;;;7.80;100.00;91837.44;5071034;28;20503;-84
2021/11/27 00:46:53;;;;;;;4.25;1.73;;;;;;;7.82;100.00;91825.22;5067996;28;20054;-83
2021/11/27 00:49:20;;;;;;;8.45;4.25;;;;;;;7.88;100.00;91818.44;5075490;28;20051;-83
2021/11/27 00:51:48;;;;;;;3.50;1.95;;;;;;;7.98;100.00;91823.75;5083581;28;20052;-84
2021/11/27 00:54:16;;;;;;;5.15;2.08;;;;;;;8.02;100.00;91834.28;5079938;28;20045;-84
2021/11/27 00:56:43;;;;;;;5.75;2.05;;;;;;;8.06;100.00;91829.47;5081342;28;20056;-84
2021/11/27 00:59:12;;;;;;;23.75;13.13;;;;;;;8.02;100.00;91817.13;5074431;28;20048;-88
2021/11/27 01:01:41;;;;;;;58.53;31.20;;;;;;;8.17;100.00;91833.78;5073012;28;20059;-83
2021/11/27 01:04:08;;;;;;;3.85;1.80;;;;;;;8.21;100.00;91837.44;5073207;28;20056;-83
2021/11/27 01:06:35;;;;;;;6.63;3.22;;;;;;;8.23;100.00;91835.41;5073035;28;20529;-84
2021/11/27 01:09:07;;;;;;;5.75;1.80;;;;;;;8.13;100.00;91809.66;5073022;28;20082;-84
2021/11/27 01:11:37;;;;;;;4.13;1.77;;;;;;;8.01;100.00;91802.06;5072808;28;20061;-84
2021/11/27 01:14:06;;;;;;;7.50;3.67;;;;;;;8.29;100.00;91831.94;5072789;28;20044;-84
2021/11/27 01:16:36;;;;;;;6.70;2.80;;;;;;;8.34;100.00;91833.81;5072960;28;20458;-83
2021/11/27 01:19:07;;;;;;;5.05;1.92;;;;;;;8.35;100.00;91829.47;5072785;28;20403;-84
2021/11/27 01:21:36;;;;;;;3.90;2.05;;;;;;;8.02;100.00;91775.47;5072710;28;20059;-84
2021/11/27 01:24:08;;;;;;;6.43;2.95;;;;;;;8.39;100.00;91831.34;5072701;28;20052;-85
2021/11/27 01:26:36;;;;;;;5.75;3.38;;;;;;;8.42;100.00;91822.41;5072648;28;20052;-84
2021/11/27 01:29:04;;;;;;;5.97;2.97;;;;;;;8.44;100.00;91833.22;5072789;28;20055;-84
2021/11/27 01:31:32;;;;;;;5.43;2.60;;;;;;;8.47;100.00;91830.19;5072569;28;20052;-84
2021/11/27 01:33:59;;;;;;;5.82;2.80;;;;;;;8.31;100.00;91816.38;5072444;28;20510;-84
2021/11/27 01:36:27;;;;;;;6.63;2.80;;;;;;;8.38;100.00;91823.91;5072556;28;20055;-84
2021/11/27 01:38:54;;;;;;;6.82;2.70;;;;;;;8.38;100.00;91829.03;5072361;28;20402;-84
2021/11/27 01:41:22;;;;;;;6.55;3.25;;;;;;;8.37;100.00;91823.13;5072436;28;20052;-85
2021/11/27 01:43:49;;;;;;;6.95;3.60;;;;;;;8.36;100.00;91819.00;5072411;28;20087;-84
2021/11/27 01:46:16;;;;;;;5.18;2.33;;;;;;;8.28;100.00;91816.81;5071972;28;20056;-92
2021/11/27 01:48:43;;;;;;;5.45;2.15;;;;;;;8.25;100.00;91815.50;5072190;28;20055;-86
2021/11/27 01:51:14;;;;;;;4.13;1.52;;;;;;;8.24;100.00;91808.06;5072138;28;20063;-85
2021/11/27 01:53:47;;;;;;;5.18;2.88;;;;;;;8.21;100.00;91805.97;5071962;28;20055;-85
2021/11/27 01:56:17;;;;;;;5.80;2.40;;;;;;;8.19;100.00;91803.63;5072215;28;20049;-86
2021/11/27 01:58:45;;;;;;;4.05;2.10;;;;;;;8.21;100.00;91790.59;5072091;28;20056;-84
2021/11/27 02:01:19;;;;;;;7.53;2.00;;;;;;;8.21;100.00;91805.97;5071772;28;20056;-87
2021/11/27 02:03:46;;;;;;;6.32;2.70;;;;;;;8.21;100.00;91803.41;5071819;28;20044;-83
2021/11/27 02:06:15;;;;;;;2.63;1.30;;;;;;;8.22;100.00;91804.94;5071935;28;20049;-84
2021/11/27 02:08:45;;;;;;;4.32;2.08;;;;;;;8.22;100.00;91799.81;5072057;28;20051;-85
2021/11/27 02:11:14;;;;;;;4.13;1.60;;;;;;;8.19;100.00;91793.38;5071764;28;20052;-84
2021/11/27 02:13:41;;;;;;;2.45;1.50;;;;;;;8.21;100.00;91799.06;5071893;28;20056;-84
2021/11/27 02:16:12;;;;;;;3.22;1.48;;;;;;;8.27;100.00;91794.81;5071667;28;20059;-85
2021/11/27 02:18:39;;;;;;;3.40;2.05;;;;;;;8.23;100.00;91783.47;5071481;28;20044;-89
2021/11/27 02:21:12;;;;;;;4.70;2.58;;;;;;;8.32;100.00;91807.69;5071414;28;20055;-84
2021/11/27 02:23:40;;;;;;;5.05;2.03;;;;;;;8.37;100.00;91818.00;5071654;28;20056;-84
2021/11/27 02:26:10;;;;;;;4.80;1.98;;;;;;;8.41;100.00;91814.00;5071479;28;20048;-83
2021/11/27 02:28:40;;;;;;;3.47;1.77;;;;;;;8.40;100.00;91822.69;5071388;28;20045;-84
2021/11/27 02:31:07;;;;;;;3.13;1.98;;;;;;;8.44;100.00;91817.88;5071333;28;20485;-84
2021/11/27 02:33:34;;;;;;;5.25;1.58;;;;;;;8.38;100.00;91804.19;5071294;28;20094;-83
2021/11/27 02:36:03;;;;;;;4.85;1.67;;;;;;;8.35;100.00;91797.00;5071579;28;20053;-83
2021/11/27 02:38:31;;;;;;;2.42;1.65;;;;;;;8.32;100.00;91786.47;5071128;28;20053;-82
2021/11/27 02:40:58;;;;;;;2.67;1.35;;;;;;;8.37;100.00;91804.44;5071077;28;20048;-83
2021/11/27 02:43:26;;;;;;;3.10;1.25;;;;;;;8.42;100.00;91799.41;5071080;28;20052;-84
2021/11/27 02:45:53;;;;;;;2.20;1.48;;;;;;;8.43;100.00;91806.09;5071480;28;20060;-85
2021/11/27 02:48:20;;;;;;;3.38;1.42;;;;;;;8.45;100.00;91796.38;5071046;28;20052;-84
2021/11/27 02:50:49;;;;;;;2.88;1.30;;;;;;;8.40;100.00;91789.41;5071080;28;21134;-85
2021/11/27 02:53:16;;;;;;;2.60;1.40;;;;;;;8.39;100.00;91774.28;5071023;28;20048;-83
2021/11/27 02:55:47;;;;;;;2.85;1.30;;;;;;;8.33;100.00;91740.16;5071104;28;20113;-84
2021/11/27 02:58:15;;;;;;;3.65;1.48;;;;;;;8.25;100.00;91755.91;5070280;28;20090;-83
2021/11/27 03:00:43;;;;;;;3.78;1.55;;;;;;;8.31;100.00;91778.00;5070929;28;20060;-83
2021/11/27 03:03:12;;;;;;;2.50;1.58;;;;;;;8.24;100.00;91764.59;5070907;28;20052;-86
2021/11/27 03:05:39;;;;;;;3.15;1.50;;;;;;;8.19;100.00;91769.59;5071169;28;20435;-85
2021/11/27 03:08:06;;;;;;;3.72;1.50;;;;;;;8.15;100.00;91753.94;5070889;28;20094;-83
2021/11/27 03:10:34;;;;;;;6.28;1.75;;;;;;;8.06;100.00;91756.09;5070796;28;20122;-82
2021/11/27 03:13:04;;;;;;;4.68;2.13;;;;;;;8.09;100.00;91752.28;5070765;28;20053;-83
2021/11/27 03:15:37;;;;;;;5.38;1.60;;;;;;;8.04;100.00;91760.66;5071011;28;20052;-83
2021/11/27 03:18:06;;;;;;;3.33;1.55;;;;;;;8.11;100.00;91768.19;5070683;28;20048;-87
2021/11/27 03:20:33;;;;;;;3.55;1.80;;;;;;;8.11;100.00;91793.78;5070716;28;20059;-83
2021/11/27 03:23:00;;;;;;;5.00;2.00;;;;;;;8.15;100.00;91794.88;5070645;28;20051;-83
2021/11/27 03:25:26;;;;;;;5.57;1.83;;;;;;;8.12;100.00;91785.09;5070723;28;20507;-82
2021/11/27 03:27:53;;;;;;;3.60;2.15;;;;;;;8.11;100.00;91801.44;5070853;28;20045;-88
2021/11/27 03:30:22;;;;;;;3.58;2.28;;;;;;;8.09;100.00;91786.31;5070664;28;20055;-82
2021/11/27 03:32:49;;;;;;;3.92;2.03;;;;;;;8.11;100.00;91798.88;5070693;28;20048;-82
2021/11/27 03:35:17;;;;;;;3.17;1.77;;;;;;;8.11;100.00;91809.88;5070661;28;20053;-83
2021/11/27 03:37:45;;;;;;;3.75;1.40;;;;;;;8.11;100.00;91821.91;5070619;28;20051;-83
2021/11/27 03:40:12;;;;;;;2.38;1.50;;;;;;;8.13;100.00;91830.13;5070914;28;20064;-82
2021/11/27 03:42:40;;;;;;;3.92;1.75;;;;;;;8.09;100.00;91827.25;5070554;28;20051;-82
2021/11/27 03:45:11;;;;;;;3.75;1.80;;;;;;;8.15;100.00;91828.13;5070595;28;20051;-83
2021/11/27 03:47:56;;;;;;;2.25;1.30;;;;;;;8.09;100.00;91846.91;5070521;28;20045;-83
2021/11/27 03:50:23;;;;;;;3.70;1.88;;;;;;;8.08;100.00;91847.91;5070678;28;20055;-83
2021/11/27 03:52:49;;;;;;;3.10;1.88;;;;;;;8.11;100.00;91860.28;5047441;28;20059;-83
2021/11/27 03:55:16;;;;;;;4.45;1.80;;;;;;;8.08;100.00;91850.47;5070282;28;20415;-82
2021/11/27 03:57:43;;;;;;;3.70;1.52;;;;;;;8.11;100.00;91844.94;5070481;28;20376;-82
2021/11/27 04:00:11;;;;;;;4.63;2.40;;;;;;;8.23;100.00;91861.00;5070457;28;20407;-83
2021/11/27 04:02:39;;;;;;;5.72;1.73;;;;;;;8.27;100.00;91846.75;5070098;28;20060;-84
2021/11/27 04:05:07;;;;;;;3.38;1.65;;;;;;;8.30;100.00;91853.19;5070542;28;20063;-82
2021/11/27 04:07:34;;;;;;;4.35;2.22;;;;;;;8.34;100.00;91861.19;5070176;28;20144;-83
2021/11/27 04:10:01;;;;;;;3.90;1.73;;;;;;;8.36;100.00;91865.06;5072812;28;20045;-82
2021/11/27 04:12:28;;;;;;;5.00;2.00;;;;;;;8.38;100.00;91864.84;5074042;28;21448;-80
2021/11/27 04:14:54;;;;;;;4.05;1.60;;;;;;;8.46;100.00;91881.63;5074019;28;20044;-81
2021/11/27 04:17:21;;;;;;;5.47;2.20;;;;;;;8.41;100.00;91862.59;5074080;28;20114;-80
2021/11/27 04:19:50;;;;;;;4.63;2.40;;;;;;;8.46;100.00;91866.25;5074291;28;20052;-80
2021/11/27 04:22:16;;;;;;;3.88;1.60;;;;;;;8.48;100.00;91869.34;5073767;28;20056;-81
2021/11/27 04:24:43;;;;;;;6.03;1.98;;;;;;;8.49;100.00;91868.34;5074022;28;20059;-80
2021/11/27 04:27:10;;;;;;;4.53;1.55;;;;;;;8.26;100.00;91826.50;5073815;28;20040;-83
2021/11/27 04:29:37;;;;;;;7.10;1.63;;;;;;;8.45;100.00;91846.78;5073677;28;20051;-83
2021/11/27 04:32:05;;;;;;;6.15;2.20;;;;;;;8.44;100.00;91848.56;5073584;28;20446;-81
2021/11/27 04:34:31;;;;;;;6.03;1.70;;;;;;;8.44;100.00;91858.81;5073817;28;20048;-82
2021/11/27 04:37:00;;;;;;;5.30;2.13;;;;;;;8.29;100.00;91839.63;5073518;28;20094;-87
2021/11/27 04:39:26;;;;;;;5.85;2.20;;;;;;;8.35;100.00;91848.16;5073573;28;20048;-81
2021/11/27 04:41:53;;;;;;;5.72;1.98;;;;;;;8.41;100.00;91865.16;5073522;28;20055;-83
2021/11/27 04:44:20;;;;;;;6.13;1.95;;;;;;;8.44;100.00;91866.47;5073346;28;20052;-82
2021/11/27 04:46:47;;;;;;;3.60;1.85;;;;;;;8.40;100.00;91858.50;5073318;28;20105;-83
2021/11/27 04:49:14;;;;;;;4.03;1.70;;;;;;;8.38;100.00;91852.81;5070259;28;20049;-82
2021/11/27 04:51:42;;;;;;;6.75;2.50;;;;;;;8.35;100.00;91847.38;5073122;28;20049;-83
2021/11/27 04:54:11;;;;;;;4.55;2.10;;;;;;;8.23;100.00;91843.09;5073743;28;20057;-82
2021/11/27 04:56:37;;;;;;;2.40;1.60;;;;;;;8.27;100.00;91843.41;5072478;28;20048;-82
2021/11/27 04:59:04;;;;;;;3.33;1.55;;;;;;;8.34;100.00;91861.19;5072511;28;20067;-83
2021/11/27 05:01:31;;;;;;;4.20;1.70;;;;;;;8.28;100.00;91862.88;5071327;28;20063;-83
2021/11/27 05:03:58;;;;;;;5.57;1.80;;;;;;;8.29;100.00;91864.44;5072162;28;20495;-82
2021/11/27 05:06:25;;;;;;;4.65;1.98;;;;;;;8.31;100.00;91887.22;5072765;28;20044;-83
2021/11/27 05:08:52;;;;;;;3.83;1.63;;;;;;;8.26;100.00;91870.00;5073020;28;20053;-82
2021/11/27 05:11:21;;;;;;;5.45;2.20;;;;;;;8.32;100.00;91891.34;5072608;28;20491;-81
2021/11/27 05:13:48;;;;;;;3.83;1.65;;;;;;;8.34;100.00;91902.88;5059830;28;20049;-82
2021/11/27 05:16:14;;;;;;;6.70;2.42;;;;;;;8.35;100.00;91914.69;5066827;28;20059;-82
2021/11/27 05:18:43;;;;;;;3.75;1.75;;;;;;;8.35;100.00;91924.94;5061376;28;20514;-84
2021/11/27 05:21:10;;;;;;;6.25;2.40;;;;;;;8.41;100.00;91920.66;5064195;28;20541;-82
2021/11/27 05:23:38;;;;;;;4.50;2.40;;;;;;;8.35;100.00;91919.03;5058338;28;20052;-83
2021/11/27 05:26:05;;;;;;;10.15;4.28;;;;;;;8.37;100.00;91928.03;5059980;28;20044;-85
2021/11/27 05:28:40;;;;;;;5.93;2.72;;;;;;;8.33;100.00;91941.50;5058307;28;20058;-83
2021/11/27 05:31:09;;;;;;;9.57;2.60;;;;;;;8.35;100.00;91945.41;5057082;28;20044;-83
2021/11/27 05:33:47;;;;;;;8.60;3.85;;;;;;;8.36;100.00;91941.81;5057281;28;20075;-83
2021/11/27 05:36:17;;;;;;;7.05;2.90;;;;;;;8.36;100.00;91951.28;5064672;28;20415;-83
2021/11/27 05:38:46;;;;;;;7.78;2.83;;;;;;;8.42;100.00;91953.72;5058844;28;20040;-83
2021/11/27 05:41:17;;;;;;;7.43;3.35;;;;;;;8.42;100.00;91948.59;5067193;28;20117;-82
2021/11/27 05:43:46;;;;;;;9.80;4.57;;;;;;;8.42;100.00;91963.16;5066836;28;20556;-84
2021/11/27 05:46:13;;;;;;;5.95;2.20;;;;;;;8.45;100.00;91967.84;5067005;28;20044;-83
2021/11/27 05:48:40;;;;;;;5.32;2.50;;;;;;;8.40;100.00;91958.28;5062634;28;20553;-83
2021/11/27 05:51:07;;;;;;;7.63;2.10;;;;;;;8.41;100.00;91962.41;5067157;28;20055;-83
2021/11/27 05:53:34;;;;;;;7.00;2.20;;;;;;;8.41;100.00;91954.72;5062019;28;20059;-82
2021/11/27 05:56:01;;;;;;;8.05;2.78;;;;;;;8.42;100.00;91963.16;5063671;28;20051;-84
2021/11/27 05:58:29;;;;;;;4.55;2.28;;;;;;;8.46;100.00;91961.72;5058108;28;20578;-83
2021/11/27 06:01:02;;;;;;;5.80;2.78;;;;;;;8.47;100.00;91975.28;5057015;28;20057;-82
2021/11/27 06:03:29;;;;;;;5.85;3.20;;;;;;;8.46;100.00;91969.38;5064918;28;20134;-82
2021/11/27 06:05:57;;;;;;;5.22;1.83;;;;;;;8.52;100.00;91985.66;5060184;28;20399;-85
2021/11/27 06:08:27;;;;;;;5.85;2.30;;;;;;;8.24;100.00;91946.97;5057894;28;20040;-89
2021/11/27 06:10:54;;;;;;;9.93;2.72;;;;;;;8.58;100.00;91983.97;5056671;28;20049;-84
2021/11/27 06:13:21;;;;;;;4.43;2.65;;;;;;;8.39;100.00;91959.28;5064357;28;20429;-83
2021/11/27 06:15:48;;;;;;;5.90;2.53;;;;;;;8.66;100.00;91983.63;5056585;28;20049;-83
2021/11/27 06:18:16;;;;;;;5.38;2.10;;;;;;;8.63;100.00;91999.41;5064386;28;20087;-83
2021/11/27 06:20:45;;;;;;;7.93;2.25;;;;;;;8.68;100.00;91991.84;5060835;28;20044;-82
2021/11/27 06:23:15;;;;;;;7.45;2.28;;;;;;;8.72;100.00;92008.31;5063298;28;20060;-84
2021/11/27 06:25:42;;;;;;;5.15;2.20;;;;;;;8.79;100.00;92011.50;5066467;28;20052;-83
2021/11/27 06:28:09;;;;;;;9.20;2.30;;;;;;;8.79;100.00;92010.72;5066373;28;20056;-83
2021/11/27 06:30:40;;;;;;;5.82;2.88;;;;;;;8.85;100.00;92014.94;5056755;28;21525;-85
2021/11/27 06:33:07;;;;;;;6.95;3.17;;;;;;;8.92;100.00;92007.91;5062188;28;20032;-83
2021/11/27 06:35:35;;;;;;;13.05;3.53;;;;;;;8.93;100.00;92014.56;5056820;28;20049;-83
2021/11/27 06:38:02;;;;;;;8.43;2.75;;;;;;;8.95;100.00;92033.03;5062698;28;20055;-83
2021/11/27 06:40:29;;;;;;;8.00;3.03;;;;;;;8.98;100.00;92042.03;5057553;28;20051;-84
2021/11/27 06:43:00;;;;;;;7.72;2.78;;;;;;;8.99;100.00;92053.06;5055762;28;20052;-83
2021/11/27 06:45:27;;;;;;;7.25;3.55;;;;;;;9.05;100.00;92054.72;5055951;28;21659;-84
2021/11/27 06:47:54;;;;;;;9.05;3.67;;;;;;;9.06;100.00;92056.28;5056067;28;20418;-83
2021/11/27 06:50:21;;;;;;;9.45;2.97;;;;;;;9.04;100.00;92059.09;5055932;28;20072;-82
2021/11/27 06:52:51;;;;;;;5.38;2.90;;;;;;;9.02;100.00;92061.06;5057082;28;20657;-91
2021/11/27 06:55:19;;;;;;;6.40;2.47;;;;;;;9.07;100.00;92063.72;5057803;28;20029;-83
2021/11/27 06:57:51;;;;;;;5.22;2.75;;;;;;;9.01;100.00;92064.66;5055492;28;20483;-88
2021/11/27 07:00:18;;;;;;;6.43;2.53;;;;;;;8.99;100.00;92048.75;5063542;28;20053;-84
2021/11/27 07:02:45;;;;;;;7.97;2.95;;;;;;;9.13;100.00;92063.84;5056607;28;20056;-84
2021/11/27 07:05:12;;;;;;;7.95;2.90;;;;;;;9.09;100.00;92060.94;5058102;28;20063;-84
2021/11/27 07:07:39;;;;;;;4.78;2.72;;;;;;;9.14;100.00;92066.16;5057078;28;20052;-82
2021/11/27 07:10:08;;;;;;;5.72;2.72;;;;;;;9.16;100.00;92068.50;5058280;28;20415;-83
2021/11/27 07:12:35;;;;;;;6.35;3.15;;;;;;;9.16;100.00;92066.72;5059866;28;20426;-83
2021/11/27 07:15:03;;;;;;;5.95;2.83;;;;;;;9.09;100.00;92048.91;5055570;28;20051;-83
2021/11/27 07:17:31;;;;;;;4.80;2.28;;;;;;;9.12;100.00;92046.91;5064040;28;20044;-84
2021/11/27 07:19:59;;;;;;;12.43;5.28;;;;;;;9.22;100.00;92059.91;5065430;28;20052;-83
2021/11/27 07:22:26;;;;;;;10.00;3.92;;;;;;;9.23;100.00;92062.22;5060781;28;20402;-84
2021/11/27 07:24:52;;;;;;;12.57;5.70;;;;;;;9.30;100.00;92067.22;5059283;28;20494;-84
2021/11/27 07:27:21;;;;;;;10.02;5.18;;;;;;;9.39;99.41;92084.78;5055114;28;20049;-83
2021/11/27 07:29:48;;;;;;;5.35;2.22;;;;;;;9.54;99.10;92089.41;5055102;28;20049;-83
2021/11/27 07:32:14;;;;;;;6.70;3.53;;;;;;;9.65;98.30;92086.00;5059376;28;20045;-83
2021/11/27 07:34:42;;;;;;;4.90;2.33;;;;;;;9.57;97.95;92058.16;5064684;28;20064;-83
2021/11/27 07:37:08;;;;;;;9.15;4.50;;;;;;;9.91;97.74;92090.75;5065122;28;20044;-84
2021/11/27 07:39:37;;;;;;;13.80;7.15;;;;;;;9.97;96.66;92088.03;5056248;28;20519;-83
2021/11/27 07:42:05;;;;;;;10.80;5.70;;;;;;;10.06;95.94;92074.81;5055970;28;20052;-84
2021/11/27 07:44:33;;;;;;;17.05;10.15;;;;;;;10.18;95.53;92090.91;5057117;28;20051;-85
2021/11/27 07:47:00;;;;;;;7.20;4.50;;;;;;;10.19;94.76;92089.91;5059438;28;20581;-85
2021/11/27 07:49:27;;;;;;;6.90;4.50;;;;;;;10.21;94.92;92095.56;5063810;28;20048;-83
2021/11/27 07:51:54;;;;;;;6.60;3.55;;;;;;;10.22;94.20;92086.84;5063225;28;20044;-85
2021/11/27 07:54:21;;;;;;;10.35;4.68;;;;;;;10.23;94.50;92087.66;5067452;28;20059;-85
2021/11/27 07:56:51;;;;;;;10.00;6.60;;;;;;;10.31;94.49;92083.91;5069072;28;20048;-85
2021/11/27 07:59:18;;;;;;;10.80;5.25;;;;;;;10.33;94.09;92099.84;5068756;28;20056;-84
2021/11/27 08:01:47;;;;;;;14.13;9.23;;;;;;;10.33;94.14;92098.06;5068860;28;20136;-84
2021/11/27 08:04:15;;;;;;;33.90;18.48;;;;;;;10.37;93.46;92106.81;5068801;28;20075;-85
2021/11/27 08:06:42;;;;;;;50.28;25.90;;;;;;;10.27;93.44;92092.06;5068936;28;20127;-84
2021/11/27 08:09:09;;;;;;;29.45;17.65;;;;;;;10.34;93.70;92091.91;5066014;28;20054;-84
2021/11/27 08:11:36;;;;;;;24.23;15.45;;;;;;;10.42;93.48;92109.47;5059251;28;20052;-84
2021/11/27 08:14:04;;;;;;;10.40;4.68;;;;;;;10.36;93.20;92107.06;5061822;28;20045;-83
2021/11/27 08:16:31;;;;;;;13.93;8.30;;;;;;;10.38;92.97;92108.38;5059006;28;20049;-84
2021/11/27 08:18:59;;;;;;;20.77;11.88;;;;;;;10.37;93.24;92104.25;5064859;28;20553;-84
2021/11/27 08:21:26;;;;;;;15.57;8.27;;;;;;;10.37;93.57;92093.97;5068742;28;20065;-84
2021/11/27 08:23:53;;;;;;;34.40;19.98;;;;;;;10.34;93.64;92093.69;5064332;28;20052;-84
2021/11/27 08:26:20;;;;;;;15.93;9.30;;;;;;;10.51;93.28;92104.72;5060452;28;20488;-84
2021/11/27 08:28:48;;;;;;;32.10;17.08;;;;;;;10.55;92.87;92112.72;5068418;28;20079;-83
2021/11/27 08:31:15;;;;;;;68.90;35.33;;;;;;;10.60;92.96;92104.34;5068746;28;20388;-83
2021/11/27 08:33:42;;;;;;;16.77;10.02;;;;;;;10.58;93.21;92109.72;5068408;28;20044;-83
2021/11/27 08:36:11;;;;;;;10.43;6.07;;;;;;;10.63;92.75;92114.13;5068590;28;20058;-84
2021/11/27 08:38:38;;;;;;;11.05;7.43;;;;;;;10.66;92.92;92108.53;5068310;28;20045;-83
2021/11/27 08:41:07;;;;;;;8.88;4.32;;;;;;;10.62;92.38;92113.38;5061166;28;20433;-83
2021/11/27 08:43:35;;;;;;;7.32;3.75;;;;;;;10.66;92.60;92113.66;5067083;28;20052;-84
2021/11/27 08:46:02;;;;;;;8.27;5.53;;;;;;;10.71;92.26;92113.72;5068025;28;20167;-84
2021/11/27 08:48:30;;;;;;;12.23;7.47;;;;;;;10.74;92.19;92118.38;5068193;28;20080;-84
2021/11/27 08:50:57;;;;;;;15.88;10.32;;;;;;;10.74;91.78;92117.63;5063992;28;20043;-84
2021/11/27 08:53:25;;;;;;;9.88;4.50;;;;;;;10.72;91.61;92114.50;5067731;28;20058;-84
2021/11/27 08:55:52;;;;;;;7.22;4.57;;;;;;;10.75;91.47;92119.97;5060974;28;20048;-84
2021/11/27 08:58:19;;;;;;;7.63;3.90;;;;;;;10.79;91.45;92123.59;5065954;28;20048;-84
2021/11/27 09:00:46;;;;;;;5.43;3.72;;;;;;;10.87;91.74;92106.22;5067628;28;20049;-84
2021/11/27 09:03:12;;;;;;;10.57;5.32;;;;;;;10.99;91.31;92101.75;5060558;28;20052;-84
2021/11/27 09:05:40;;;;;;;9.13;5.63;;;;;;;11.15;91.04;92094.97;5058042;28;20514;-84
2021/11/27 09:08:06;;;;;;;5.65;3.38;;;;;;;11.32;89.85;92104.41;5064817;28;20817;-84
2021/11/27 09:10:35;;;;;;;16.25;9.52;;;;;;;11.33;89.47;92100.81;5062493;28;20053;-87
2021/11/27 09:13:03;;;;;;;8.57;6.70;;;;;;;11.50;89.29;92105.88;5066998;28;20036;-86
2021/11/27 09:15:30;;;;;;;9.88;6.53;;;;;;;11.61;88.73;92102.38;5058920;28;20487;-84
2021/11/27 09:17:57;;;;;;;9.73;5.68;;;;;;;11.79;88.50;92097.13;5064349;28;20118;-83
2021/11/27 09:20:25;;;;;;;10.43;5.05;;;;;;;11.73;87.81;92071.38;5059245;28;20048;-84
2021/11/27 09:22:52;;;;;;;11.13;5.53;;;;;;;12.00;87.20;92087.78;5059714;28;21079;-83
2021/11/27 09:25:25;;;;;;;15.48;6.10;;;;;;;12.20;86.23;92094.91;5059642;28;20091;-84
2021/11/27 09:27:53;;;;;;;14.57;5.70;;;;;;;12.27;85.99;92095.47;5053409;28;20045;-83
2021/11/27 09:30:20;;;;;;;11.68;4.90;;;;;;;12.39;85.67;92102.22;5065456;28;20048;-84
2021/11/27 09:32:47;;;;;;;18.15;7.13;;;;;;;12.48;84.70;92099.97;5057953;28;20143;-82
2021/11/27 09:35:14;;;;;;;20.55;7.82;;;;;;;12.66;84.30;92102.16;5057312;28;20049;-85
2021/11/27 09:37:43;;;;;;;12.48;5.63;;;;;;;12.83;84.33;92112.25;5067279;28;20051;-87
2021/11/27 09:40:11;;;;;;;8.35;4.55;;;;;;;12.88;82.94;92106.38;5064115;28;20048;-82
2021/11/27 09:42:39;;;;;;;8.75;3.20;;;;;;;12.95;82.17;92101.75;5066248;28;20125;-83
2021/11/27 09:45:09;;;;;;;8.18;4.55;;;;;;;12.89;82.09;92099.41;5066832;28;20040;-87
2021/11/27 09:47:37;;;;;;;7.55;5.18;;;;;;;12.85;82.24;92095.78;5058553;28;20040;-83
2021/11/27 09:50:06;;;;;;;6.95;3.30;;;;;;;12.76;82.19;92106.56;5059816;28;20399;-84
2021/11/27 09:52:34;;;;;;;7.00;2.83;;;;;;;12.64;82.07;92103.41;5065568;28;20053;-84
2021/11/27 09:55:16;;;;;;;8.05;5.68;;;;;;;12.72;81.82;92109.91;5068729;28;20056;-85
2021/11/27 09:57:44;;;;;;;7.68;3.47;;;;;;;12.62;82.24;92101.09;5057426;28;20049;-88
2021/11/27 10:00:15;;;;;;;4.60;2.58;;;;;;;12.67;82.41;92097.75;5064211;28;20067;-83
2021/11/27 10:02:46;;;;;;;11.48;5.80;;;;;;;12.64;81.92;92062.19;5057401;28;20041;-86
2021/11/27 10:05:14;;;;;;;9.35;4.80;;;;;;;12.85;81.34;92093.97;5056475;28;21329;-83
2021/11/27 10:07:42;;;;;;;16.65;10.02;;;;;;;12.78;80.63;92077.97;5060518;28;20060;-85
2021/11/27 10:10:11;;;;;;;31.85;17.48;;;;;;;12.98;80.32;92086.81;5063629;28;20040;-83
2021/11/27 10:12:40;;;;;;;23.05;11.55;;;;;;;13.10;79.23;92090.72;5066179;28;20522;-83
2021/11/27 10:15:08;;;;;;;33.38;14.02;;;;;;;13.06;78.77;92079.38;5059588;28;20049;-84
2021/11/27 10:17:38;;;;;;;13.27;5.88;;;;;;;13.26;77.75;92088.22;5056182;28;20498;-86
2021/11/27 10:20:06;;;;;;;7.68;3.50;;;;;;;13.27;77.07;92083.81;5059347;28;20056;-88
2021/11/27 10:22:45;;;;;;;7.30;2.90;;;;;;;13.37;76.88;92073.53;5063388;28;20066;-84
2021/11/27 10:25:30;;;;;;;20.27;9.20;;;;;;;13.49;77.13;92089.59;5056244;28;20427;-83
2021/11/27 10:28:05;;;;;;;23.03;9.13;;;;;;;13.60;75.39;92098.13;5062689;28;20048;-83
2021/11/27 10:30:41;;;;;;;12.50;3.70;;;;;;;13.61;75.44;92088.59;5066450;28;20059;-86
2021/11/27 10:33:09;;;;;;;;;;;;;;;13.65;75.23;92091.41;5059383;28;20052;-84
2021/11/27 10:35:49;;;;;;;11.68;5.22;;;;;;;13.72;74.40;92082.41;5056029;28;20382;-84
2021/11/27 10:38:16;;;;;;;15.35;5.97;;;;;;;13.73;74.27;92083.94;5056385;28;20052;-83
2021/11/27 10:40:44;;;;;;;9.27;3.60;;;;;;;13.79;74.01;92078.78;5055896;28;20060;-85
2021/11/27 10:43:11;;;;;;;20.17;8.10;;;;;;;13.86;73.15;92056.06;5056002;28;20056;-83
2021/11/27 10:45:40;;;;;;;20.30;7.05;;;;;;;13.99;73.23;92060.72;5065629;28;20461;-86
2021/11/27 10:48:11;;;;;;;30.67;11.45;;;;;;;14.14;72.04;92065.13;5058748;28;20044;-85
2021/11/27 10:50:39;;;;;;;7.85;2.67;;;;;;;14.18;71.85;92069.75;5066030;28;20056;-85
2021/11/27 10:53:11;;;;;;;17.35;6.00;;;;;;;14.23;70.90;92062.78;5065462;28;20053;-85
2021/11/27 10:55:39;;;;;;;9.60;3.45;;;;;;;14.24;71.22;92076.44;5059080;28;20056;-85
2021/11/27 10:58:08;;;;;;;16.30;6.13;;;;;;;14.23;71.43;92062.78;5058548;28;20048;-83
2021/11/27 11:00:41;;;;;;;29.30;11.45;;;;;;;14.15;70.68;92055.53;5055591;28;20450;-84
2021/11/27 11:03:25;;;;;;;17.05;6.93;;;;;;;14.18;71.23;92067.16;5055330;28;20484;-85
2021/11/27 11:05:54;;;;;;;15.82;6.95;;;;;;;14.22;71.50;92055.28;5061582;28;20513;-84
2021/11/27 11:08:31;;;;;;;18.85;7.78;;;;;;;14.28;71.04;92055.03;5060450;28;20139;-84
2021/11/27 11:10:58;;;;;;;14.75;6.43;;;;;;;14.24;70.85;92043.66;5064772;28;20505;-84
2021/11/27 11:13:30;;;;;;;25.67;11.57;;;;;;;14.32;70.41;92055.28;5060788;28;20041;-85
2021/11/27 11:15:57;;;;;;;24.15;11.40;;;;;;;14.29;71.35;92038.50;5065075;28;20487;-84
2021/11/27 11:18:28;;;;;;;17.02;7.55;;;;;;;14.14;71.39;92028.19;5060213;28;20048;-86
2021/11/27 11:20:57;;;;;;;12.75;5.50;;;;;;;14.11;71.85;92024.31;5056660;28;20053;-83
2021/11/27 11:23:35;;;;;;;11.43;4.40;;;;;;;14.16;71.95;92034.63;5064446;28;20045;-84
2021/11/27 11:26:04;;;;;;;34.17;17.20;;;;;;;14.19;72.01;92041.06;5062339;28;20518;-82
2021/11/27 11:28:33;;;;;;;7.53;2.80;;;;;;;14.08;72.33;92021.47;5062892;28;20055;-83
2021/11/27 11:31:04;;;;;;;4.70;2.38;;;;;;;14.10;72.53;92042.63;5065037;28;20052;-86
2021/11/27 11:33:34;;;;;;;14.93;7.57;;;;;;;14.08;73.38;92040.34;5065387;28;20044;-84
2021/11/27 11:36:04;;;;;;;21.05;9.63;;;;;;;14.05;72.29;92040.84;5065039;28;20056;-84